createdAt,value
2022-08-22T00:00:08.053Z,52.23
2022-08-22T00:02:58.750Z,51.75
2022-08-22T00:03:10.808Z,51.61
2022-08-22T00:03:11.355Z,51.93
2022-08-22T00:05:08.559Z,52.23
2022-08-22T00:10:08.281Z,52.25
2022-08-22T00:15:42.625Z,52.27
2022-08-22T00:20:08.495Z,52.3
2022-08-22T00:25:08.204Z,52.32
2022-08-22T00:30:08.458Z,52.34
2022-08-22T00:35:08.131Z,52.34
2022-08-22T00:40:07.885Z,52.38
2022-08-22T00:45:18.569Z,52.39
2022-08-22T00:50:08.269Z,52.43
2022-08-22T00:55:07.942Z,52.42
2022-08-22T01:00:12.258Z,52.45
2022-08-22T01:05:07.959Z,52.45
2022-08-22T01:10:07.753Z,52.5
2022-08-22T01:15:08.477Z,52.51
2022-08-22T01:20:08.187Z,52.51
2022-08-22T01:25:08.476Z,52.53
2022-08-22T01:30:08.420Z,52.56
2022-08-22T01:35:07.908Z,52.58
2022-08-22T01:40:08.729Z,52.6
2022-08-22T01:45:08.491Z,52.62
2022-08-22T01:50:11.751Z,52.64
2022-08-22T01:55:08.512Z,52.63
2022-08-22T02:00:08.222Z,52.69
2022-08-22T02:05:08.131Z,52.7
2022-08-22T02:10:07.822Z,52.73
2022-08-22T02:15:08.541Z,52.74
2022-08-22T02:20:08.260Z,52.75
2022-08-22T02:25:09.287Z,52.78
2022-08-22T02:30:08.022Z,52.78
2022-08-22T02:35:07.745Z,52.77
2022-08-22T02:40:08.479Z,52.83
2022-08-22T02:45:08.234Z,52.81
2022-08-22T02:50:12.785Z,52.83
2022-08-22T02:55:17.862Z,52.82
2022-08-22T03:00:31.792Z,52.83
2022-08-22T03:05:07.835Z,52.85
2022-08-22T03:10:08.011Z,52.86
2022-08-22T03:15:07.721Z,52.85
2022-08-22T03:20:18.443Z,52.88
2022-08-22T03:25:08.174Z,52.87
2022-08-22T03:30:07.837Z,52.89
2022-08-22T03:35:08.544Z,52.89
2022-08-22T03:40:08.350Z,52.9
2022-08-22T03:45:13.563Z,52.92
2022-08-22T03:50:10.740Z,52.93
2022-08-22T03:55:08.438Z,52.94
2022-08-22T04:00:08.144Z,52.94
2022-08-22T04:05:02.114Z,52.96
2022-08-22T04:10:02.031Z,52.96
2022-08-22T04:15:02.040Z,52.97
2022-08-22T04:20:01.915Z,52.99
2022-08-22T04:25:07.134Z,53.0
2022-08-22T04:30:02.674Z,53.0
2022-08-22T04:35:02.539Z,53.0
2022-08-22T04:40:02.374Z,53.03
2022-08-22T04:45:02.191Z,53.05
2022-08-22T04:50:07.381Z,53.08
2022-08-22T04:55:02.233Z,53.09
2022-08-22T05:00:02.068Z,53.09
2022-08-22T05:05:01.910Z,53.09
2022-08-22T05:10:10.526Z,53.12
2022-08-22T05:15:02.275Z,53.11
2022-08-22T05:20:02.841Z,53.11
2022-08-22T05:25:02.765Z,53.1
2022-08-22T05:30:02.588Z,53.12
2022-08-22T05:35:02.449Z,53.1
2022-08-22T05:40:02.351Z,53.1
2022-08-22T05:45:02.383Z,53.12
2022-08-22T05:50:12.226Z,53.12
2022-08-22T05:55:01.997Z,53.11
2022-08-22T06:00:01.729Z,53.15
2022-08-22T06:05:02.526Z,53.13
2022-08-22T06:10:02.387Z,53.13
2022-08-22T06:15:02.203Z,53.13
2022-08-22T06:20:04.458Z,53.14
2022-08-22T06:25:12.312Z,53.16
2022-08-22T06:30:02.724Z,53.26
2022-08-22T06:35:01.780Z,53.33
2022-08-22T06:40:01.967Z,53.41
2022-08-22T06:45:02.038Z,53.44
2022-08-22T06:50:02.043Z,53.52
2022-08-22T06:55:02.126Z,53.54
2022-08-22T07:00:02.004Z,53.61
2022-08-22T07:05:01.919Z,53.65
2022-08-22T07:10:02.743Z,53.66
2022-08-22T07:15:09.562Z,53.67
2022-08-22T07:20:12.390Z,53.72
2022-08-22T07:25:02.268Z,53.77
2022-08-22T07:30:02.119Z,53.8
2022-08-22T07:35:01.902Z,53.81
2022-08-22T07:40:02.772Z,53.85
2022-08-22T07:45:02.659Z,53.86
2022-08-22T07:50:02.483Z,53.89
2022-08-22T07:55:02.361Z,53.91
2022-08-22T08:00:02.243Z,53.94
2022-08-22T08:05:02.171Z,53.98
2022-08-22T08:10:02.128Z,54.0
2022-08-22T08:15:02.184Z,54.06
2022-08-22T08:20:02.064Z,54.09
2022-08-22T08:25:02.218Z,54.09
2022-08-22T08:30:02.026Z,54.13
2022-08-22T08:35:01.884Z,54.13
2022-08-22T08:40:02.530Z,54.13
2022-08-22T08:45:02.476Z,54.12
2022-08-22T08:50:02.235Z,54.1
2022-08-22T08:55:21.889Z,54.07
2022-08-22T09:00:02.638Z,54.04
2022-08-22T09:05:02.682Z,54.01
2022-08-22T09:10:02.796Z,53.99
2022-08-22T09:15:14.523Z,53.96
2022-08-22T09:20:02.439Z,53.92
2022-08-22T09:25:06.034Z,53.88
2022-08-22T09:30:02.459Z,53.83
2022-08-22T09:35:02.585Z,53.73
2022-08-22T09:40:16.019Z,53.62
2022-08-22T09:45:02.701Z,53.56
2022-08-22T09:50:01.820Z,53.42
2022-08-22T09:55:02.601Z,53.4
2022-08-22T10:00:02.406Z,53.3
2022-08-22T10:05:03.947Z,53.26
2022-08-22T10:10:12.061Z,53.24
2022-08-22T10:15:01.829Z,53.18
2022-08-22T10:20:02.740Z,53.1
2022-08-22T10:25:02.584Z,53.06
2022-08-22T10:30:08.690Z,53.03
2022-08-22T10:35:02.676Z,52.95
2022-08-22T10:40:02.474Z,52.88
2022-08-22T10:45:02.404Z,52.84
2022-08-22T10:50:02.550Z,52.82
2022-08-22T10:55:05.724Z,52.77
2022-08-22T11:00:11.673Z,52.66
2022-08-22T11:05:02.568Z,52.65
2022-08-22T11:10:02.475Z,52.55
2022-08-22T11:15:03.014Z,52.5
2022-08-22T11:20:02.015Z,52.38
2022-08-22T11:25:04.370Z,52.3
2022-08-22T11:30:02.686Z,52.2
2022-08-22T11:35:02.529Z,52.07
2022-08-22T11:40:02.463Z,51.89
2022-08-22T11:45:02.446Z,51.78
2022-08-22T11:50:02.392Z,51.67
2022-08-22T11:55:02.568Z,51.56
2022-08-22T12:00:02.502Z,51.42
2022-08-22T12:05:02.453Z,51.3
2022-08-22T12:10:13.815Z,51.2
2022-08-22T12:15:02.996Z,51.0
2022-08-22T12:20:16.146Z,50.76
2022-08-22T12:25:03.225Z,50.6
2022-08-22T12:30:02.073Z,50.4
2022-08-22T12:35:14.078Z,50.19
2022-08-22T12:40:02.406Z,50.0
2022-08-22T12:45:02.303Z,49.89
2022-08-22T12:50:02.324Z,49.75
2022-08-22T12:55:02.085Z,49.65
2022-08-22T13:00:02.009Z,49.53
2022-08-22T13:05:01.795Z,49.41
2022-08-22T13:10:08.716Z,49.31
2022-08-22T13:15:02.557Z,49.22
2022-08-22T13:20:02.419Z,48.99
2022-08-22T13:25:02.255Z,48.88
2022-08-22T13:30:01.803Z,48.76
2022-08-22T13:35:01.814Z,48.72
2022-08-22T13:40:02.727Z,48.66
2022-08-22T13:45:04.356Z,48.58
2022-08-22T13:50:02.731Z,48.5
2022-08-22T13:55:02.549Z,48.47
2022-08-22T14:00:12.411Z,48.34
2022-08-22T14:05:02.165Z,48.24
2022-08-22T14:10:02.559Z,48.12
2022-08-22T14:15:02.580Z,48.12
2022-08-22T14:20:02.523Z,47.88
2022-08-22T14:25:02.628Z,47.78
2022-08-22T14:30:02.817Z,47.66
2022-08-22T14:35:02.877Z,47.59
2022-08-22T14:40:02.706Z,47.49
2022-08-22T14:45:02.005Z,47.47
2022-08-22T14:50:02.732Z,47.33
2022-08-22T14:55:06.250Z,47.33
2022-08-22T15:00:02.062Z,47.37
2022-08-22T15:05:01.937Z,47.4
2022-08-22T15:10:03.122Z,47.41
2022-08-22T15:15:02.245Z,47.39
2022-08-22T15:20:12.094Z,47.35
2022-08-22T15:25:01.974Z,47.34
2022-08-22T15:30:01.759Z,47.36
2022-08-22T15:35:02.472Z,47.38
2022-08-22T15:40:02.978Z,47.35
2022-08-22T15:45:02.540Z,47.36
2022-08-22T15:50:02.532Z,47.35
2022-08-22T15:55:02.338Z,47.32
2022-08-22T16:00:12.663Z,47.32
2022-08-22T16:05:02.483Z,47.33
2022-08-22T16:10:02.368Z,47.32
2022-08-22T16:15:02.174Z,47.38
2022-08-22T16:20:02.024Z,47.37
2022-08-22T16:25:01.856Z,47.38
2022-08-22T16:30:02.680Z,47.39
2022-08-22T16:35:02.534Z,47.41
2022-08-22T16:40:02.500Z,47.45
2022-08-22T16:45:02.373Z,47.44
2022-08-22T16:50:12.445Z,47.46
2022-08-22T16:55:02.308Z,47.45
2022-08-22T17:00:02.149Z,47.5
2022-08-22T17:05:02.269Z,47.52
2022-08-22T17:10:02.539Z,47.5
2022-08-22T17:15:02.477Z,47.49
2022-08-22T17:20:02.425Z,47.54
2022-08-22T17:25:02.379Z,47.56
2022-08-22T17:30:02.315Z,47.55
2022-08-22T17:35:04.415Z,47.56
2022-08-22T17:40:02.399Z,47.6
2022-08-22T17:45:02.272Z,47.61
2022-08-22T17:50:02.093Z,47.65
2022-08-22T17:55:02.170Z,47.67
2022-08-22T18:00:01.948Z,47.72
2022-08-22T18:05:01.811Z,47.74
2022-08-22T18:10:12.618Z,47.73
2022-08-22T18:15:02.447Z,47.77
2022-08-22T18:20:02.304Z,47.8
2022-08-22T18:25:02.092Z,47.82
2022-08-22T18:30:01.964Z,47.88
2022-08-22T18:35:11.747Z,47.91
2022-08-22T18:40:02.595Z,47.99
2022-08-22T18:45:02.569Z,48.02
2022-08-22T18:50:02.390Z,48.09
2022-08-22T18:55:02.202Z,48.11
2022-08-22T19:00:02.076Z,48.16
2022-08-22T19:05:11.866Z,48.2
2022-08-22T19:10:02.781Z,48.28
2022-08-22T19:15:02.844Z,48.3
2022-08-22T19:20:02.698Z,48.31
2022-08-22T19:25:02.525Z,48.37
2022-08-22T19:30:02.363Z,48.44
2022-08-22T19:35:02.341Z,48.45
2022-08-22T19:40:02.333Z,48.5
2022-08-22T19:45:05.005Z,48.54
2022-08-22T19:50:02.018Z,48.56
2022-08-22T19:55:02.721Z,48.59
2022-08-22T20:00:02.651Z,48.64
2022-08-22T20:05:02.588Z,48.67
2022-08-22T20:10:02.604Z,48.73
2022-08-22T20:15:02.573Z,48.75
2022-08-22T20:20:18.724Z,48.8
2022-08-22T20:25:02.015Z,48.83
2022-08-22T20:30:01.972Z,48.88
2022-08-22T20:35:21.712Z,48.91
2022-08-22T20:40:08.164Z,48.95
2022-08-22T20:45:12.191Z,48.97
2022-08-22T20:50:08.233Z,49.02
2022-08-22T20:55:07.917Z,49.06
2022-08-22T21:00:08.624Z,49.13
2022-08-22T21:05:08.326Z,49.13
2022-08-22T21:10:22.245Z,49.17
2022-08-22T21:15:08.589Z,49.19
2022-08-22T21:20:08.342Z,49.23
2022-08-22T21:25:08.086Z,49.28
2022-08-22T21:30:07.793Z,49.33
2022-08-22T21:35:08.468Z,49.33
2022-08-22T21:40:08.210Z,49.37
2022-08-22T21:45:08.336Z,49.4
2022-08-22T21:50:08.038Z,49.45
2022-08-22T21:55:07.719Z,49.48
2022-08-22T22:00:08.438Z,49.52
2022-08-22T22:05:08.465Z,49.55
2022-08-22T22:10:08.184Z,49.6
2022-08-22T22:15:07.883Z,49.63
2022-08-22T22:20:08.631Z,49.69
2022-08-22T22:25:39.801Z,49.71
2022-08-22T22:30:08.619Z,49.75
2022-08-22T22:35:08.339Z,49.77
2022-08-22T22:40:08.113Z,49.82
2022-08-22T22:45:07.876Z,49.84
2022-08-22T22:50:08.546Z,49.86
2022-08-22T22:55:08.211Z,49.9
2022-08-22T23:01:00.863Z,49.95
2022-08-22T23:05:07.823Z,49.98
2022-08-22T23:10:08.597Z,50.02
2022-08-22T23:15:08.295Z,50.04
2022-08-22T23:20:07.989Z,50.09
2022-08-22T23:25:07.691Z,50.11
2022-08-22T23:30:08.407Z,50.13
2022-08-22T23:35:08.075Z,50.2
2022-08-22T23:40:07.894Z,50.24
2022-08-22T23:45:07.665Z,50.25
2022-08-22T23:50:08.352Z,50.29
2022-08-22T23:55:08.057Z,50.34
